Terminal Aerodrome Forecast
Issued by NWS

Home | Current Version | Previous Version | Text Only | Print | Product List | Glossary On
Versions: 1 2 3 4 5 6 7 8 9 10 11 12 13 14
000
FTUS43 KDLH 291722
TAFBRD
TAF
KBRD 291722Z 2918/3018 05007KT P6SM SCT050
     FM300000 08005KT P6SM FEW050
     FM300400 04002KT P6SM SKC
     FM301400 08012G20KT P6SM SCT050=

USA.gov is the U.S. government's official web portal to all federal, state and local government web resources and services.